Terminal Aerodrome Forecast
Issued by NWS Wilmington, OH

Home | Current Version | Previous Version | Text Only | Print | Product List | Glossary On
Versions: 1 2 3 4 5 6 7 8 9 10 11 12 13 14 15 16 17 18 19 20 21
000
FTUS41 KILN 291600 AAB
TAFILN
TAF AMD
KILN 291628Z 2916/3012 21015G24KT P6SM BKN060
     FM291700 22016G26KT P6SM VCSH BKN022 OVC120
     FM292100 26017G27KT P6SM OVC009
     FM300100 29015G23KT P6SM OVC012
     FM301000 31012G20KT P6SM OVC022=

USA.gov is the U.S. government's official web portal to all federal, state and local government web resources and services.